Time;durP1;ratioP1;P1;durP2;ratioP2;P2;SDS_P1;SDS_P2;PMS_P1;PMS_P2;Temp;Humidity;BMP_temperature;BMP_pressure;BME280_temperature;BME280_humidity;BME280_pressure;Samples;Min_cycle;Max_cycle;Signal;HPM_P1;HPM_P2
2023/10/10 00:00:49;;;;;;;14.33;11.20;;;10.50;99.90;;;;;;5054396;28;20450;-64
2023/10/10 00:03:17;;;;;;;18.07;12.53;;;10.50;99.90;;;;;;5046639;28;20433;-62
2023/10/10 00:05:44;;;;;;;13.40;12.10;;;10.50;99.90;;;;;;5052948;28;20549;-64
2023/10/10 00:08:11;;;;;;;17.77;11.53;;;10.50;99.90;;;;;;5052061;28;21064;-62
2023/10/10 00:10:45;;;;;;;12.83;11.10;;;10.40;99.90;;;;;;5047710;28;21236;-62
2023/10/10 00:13:12;;;;;;;14.20;11.30;;;10.50;99.90;;;;;;5052709;28;20464;-63
2023/10/10 00:15:49;;;;;;;12.87;11.13;;;10.50;99.90;;;;;;5040263;28;20995;-63
2023/10/10 00:18:21;;;;;;;18.13;13.07;;;10.50;99.90;;;;;;5046251;28;20536;-64
2023/10/10 00:21:06;;;;;;;13.93;11.73;;;10.50;99.90;;;;;;5053582;28;20446;-64
2023/10/10 00:23:41;;;;;;;14.40;11.90;;;10.50;99.90;;;;;;5053535;28;20446;-64
2023/10/10 00:26:12;;;;;;;14.90;11.07;;;10.50;99.90;;;;;;5054396;28;20477;-64
2023/10/10 00:28:41;;;;;;;15.97;11.93;;;10.50;99.90;;;;;;5056355;28;20677;-63
2023/10/10 00:31:10;;;;;;;11.40;10.30;;;10.60;99.90;;;;;;5053544;28;20985;-62
2023/10/10 00:33:40;;;;;;;15.47;12.10;;;10.50;99.90;;;;;;5052261;28;20466;-62
2023/10/10 00:36:10;;;;;;;19.90;12.63;;;10.50;99.90;;;;;;5051929;28;20485;-62
2023/10/10 00:38:36;;;;;;;16.17;12.50;;;10.50;99.90;;;;;;5053543;28;21247;-63
2023/10/10 00:41:09;;;;;;;12.63;11.33;;;10.50;99.90;;;;;;5050675;28;20455;-64
2023/10/10 00:43:37;;;;;;;12.83;11.53;;;10.50;99.90;;;;;;5050253;28;20475;-63
2023/10/10 00:46:05;;;;;;;12.77;11.37;;;10.50;99.90;;;;;;5048575;28;20872;-63
2023/10/10 00:48:34;;;;;;;14.13;11.83;;;10.50;99.90;;;;;;5051217;28;21202;-63
2023/10/10 00:51:10;;;;;;;13.73;11.43;;;10.60;99.90;;;;;;5053375;28;20446;-64
2023/10/10 00:53:39;;;;;;;15.47;12.57;;;10.60;99.90;;;;;;5052708;28;20440;-63
2023/10/10 00:56:07;;;;;;;13.40;11.67;;;10.60;99.90;;;;;;5050763;28;20521;-64
2023/10/10 00:58:37;;;;;;;13.93;11.60;;;10.60;99.90;;;;;;5053357;28;20469;-64
2023/10/10 01:01:10;;;;;;;15.20;11.23;;;10.60;99.90;;;;;;5051221;28;20525;-63
2023/10/10 01:03:39;;;;;;;13.17;11.57;;;10.60;99.90;;;;;;5052821;28;20446;-62
2023/10/10 01:06:20;;;;;;;15.03;11.20;;;10.60;99.90;;;;;;5051235;28;20944;-64
2023/10/10 01:08:57;;;;;;;19.43;11.13;;;10.60;99.90;;;;;;5047260;28;20615;-63
2023/10/10 01:11:24;;;;;;;13.37;11.47;;;10.60;99.90;;;;;;5042113;28;20465;-62
2023/10/10 01:13:52;;;;;;;14.00;10.50;;;10.60;99.90;;;;;;5056479;28;20492;-64
2023/10/10 01:16:23;;;;;;;14.70;11.13;;;10.60;99.90;;;;;;5048469;28;20474;-62
2023/10/10 01:18:54;;;;;;;15.63;12.57;;;10.60;99.90;;;;;;5050675;28;21014;-64
2023/10/10 01:21:30;;;;;;;16.20;12.17;;;10.60;99.90;;;;;;5049621;28;20462;-63
2023/10/10 01:24:00;;;;;;;13.13;11.17;;;10.60;99.90;;;;;;5049113;28;20466;-63
2023/10/10 01:26:32;;;;;;;11.30;10.10;;;10.60;99.90;;;;;;5055135;28;20453;-64
2023/10/10 01:29:12;;;;;;;12.70;10.20;;;10.60;99.90;;;;;;5047217;28;20902;-64
2023/10/10 01:31:42;;;;;;;12.40;10.90;;;10.60;99.90;;;;;;5045289;28;20828;-63
2023/10/10 01:34:09;;;;;;;11.23;10.13;;;10.60;99.90;;;;;;5057597;28;20450;-62
2023/10/10 01:36:38;;;;;;;16.37;10.80;;;10.60;99.90;;;;;;5056578;28;20481;-63
2023/10/10 01:39:34;;;;;;;14.67;10.60;;;10.60;99.90;;;;;;5053869;28;20987;-63
2023/10/10 01:42:01;;;;;;;11.37;10.10;;;10.60;99.90;;;;;;5053549;28;20898;-63
2023/10/10 01:44:28;;;;;;;11.87;10.53;;;10.70;99.90;;;;;;5044659;28;20453;-63
2023/10/10 01:46:54;;;;;;;10.97;9.87;;;10.70;99.90;;;;;;5051987;28;20486;-62
2023/10/10 01:49:25;;;;;;;13.03;10.10;;;10.70;99.90;;;;;;5055392;28;20462;-63
2023/10/10 01:51:55;;;;;;;11.10;9.80;;;10.60;99.90;;;;;;5054458;28;20462;-62
2023/10/10 01:54:29;;;;;;;11.63;9.80;;;10.60;99.90;;;;;;5054668;28;20501;-63
2023/10/10 01:57:00;;;;;;;10.00;9.07;;;10.70;99.90;;;;;;5047922;28;20532;-63
2023/10/10 01:59:35;;;;;;;12.70;9.83;;;10.70;99.90;;;;;;5043010;28;20486;-62
2023/10/10 02:02:06;;;;;;;9.97;8.90;;;10.70;99.90;;;;;;5050179;28;21000;-64
2023/10/10 02:04:35;;;;;;;10.70;9.13;;;10.70;99.90;;;;;;5049542;28;20869;-62
2023/10/10 02:07:15;;;;;;;9.47;8.67;;;10.70;99.90;;;;;;5052692;28;20462;-64
2023/10/10 02:09:43;;;;;;;10.23;9.10;;;10.70;99.90;;;;;;5050490;28;20472;-62
2023/10/10 02:12:16;;;;;;;11.70;9.40;;;10.70;99.90;;;;;;5049476;28;20461;-62
2023/10/10 02:14:43;;;;;;;12.00;9.67;;;10.80;99.90;;;;;;5048078;28;20528;-63
2023/10/10 02:17:22;;;;;;;12.83;8.67;;;10.80;99.90;;;;;;5051016;28;20575;-63
2023/10/10 02:19:57;;;;;;;9.60;8.70;;;10.80;99.90;;;;;;5051637;28;20515;-55
2023/10/10 02:22:36;;;;;;;9.60;8.70;;;10.80;99.90;;;;;;5049732;28;21049;-55
2023/10/10 02:27:54;;;;;;;10.17;8.93;;;10.80;99.90;;;;;;5054851;28;21072;-55
2023/10/10 02:30:34;;;;;;;12.03;8.70;;;10.80;99.90;;;;;;5043279;28;20458;-54
2023/10/10 02:33:02;;;;;;;9.00;8.10;;;10.80;99.90;;;;;;5058548;28;20535;-54
2023/10/10 02:35:34;;;;;;;9.47;8.40;;;10.80;99.90;;;;;;5054912;28;20493;-55
2023/10/10 02:38:06;;;;;;;13.30;8.40;;;10.80;99.90;;;;;;5056764;28;20838;-54
2023/10/10 02:40:42;;;;;;;9.13;8.13;;;10.80;99.90;;;;;;5050002;28;20461;-54
2023/10/10 02:43:19;;;;;;;8.63;7.73;;;10.80;99.90;;;;;;5051698;28;21033;-54
2023/10/10 02:45:45;;;;;;;8.67;7.70;;;10.80;99.90;;;;;;5053326;28;20457;-55
2023/10/10 02:48:20;;;;;;;7.47;6.67;;;10.90;99.90;;;;;;5050301;28;20473;-54
2023/10/10 02:50:51;;;;;;;8.40;7.53;;;10.80;99.90;;;;;;5056420;28;20445;-55
2023/10/10 02:53:19;;;;;;;7.33;6.57;;;10.90;99.90;;;;;;5052633;28;20462;-55
2023/10/10 02:55:50;;;;;;;7.27;6.47;;;10.90;99.90;;;;;;5050073;28;20572;-55
2023/10/10 02:58:21;;;;;;;7.03;6.30;;;10.90;99.90;;;;;;5055499;28;20826;-55
2023/10/10 03:00:49;;;;;;;7.13;6.00;;;10.90;99.90;;;;;;5062676;28;20472;-55
2023/10/10 03:03:19;;;;;;;6.63;5.93;;;10.90;99.90;;;;;;5052001;28;20911;-54
2023/10/10 03:05:51;;;;;;;6.53;5.47;;;10.90;99.90;;;;;;5049973;28;20504;-55
2023/10/10 03:08:34;;;;;;;6.23;5.70;;;10.90;99.90;;;;;;5049580;28;20477;-55
2023/10/10 03:11:00;;;;;;;7.43;6.00;;;11.00;99.90;;;;;;5053187;28;20931;-53
2023/10/10 03:13:42;;;;;;;7.50;5.70;;;10.90;99.90;;;;;;5049701;28;20516;-54
2023/10/10 03:16:29;;;;;;;5.33;4.90;;;11.00;99.90;;;;;;5055416;28;20487;-54
2023/10/10 03:19:13;;;;;;;5.57;5.07;;;11.00;99.90;;;;;;5054039;28;20503;-55
2023/10/10 03:21:44;;;;;;;5.10;4.70;;;11.00;99.90;;;;;;5053487;28;20505;-54
2023/10/10 03:24:30;;;;;;;5.43;4.77;;;11.00;99.90;;;;;;5048456;28;20951;-55
2023/10/10 03:27:01;;;;;;;4.50;4.20;;;11.00;99.90;;;;;;5048053;28;20466;-55
2023/10/10 03:29:47;;;;;;;5.17;4.70;;;11.00;99.90;;;;;;5053773;28;20532;-55
2023/10/10 03:32:22;;;;;;;5.10;4.70;;;11.00;99.90;;;;;;5049401;28;20469;-54
2023/10/10 03:34:56;;;;;;;5.73;5.23;;;11.00;99.90;;;;;;5063836;28;21027;-54
2023/10/10 03:37:29;;;;;;;8.23;5.40;;;11.00;99.90;;;;;;5046087;28;20477;-55
2023/10/10 03:40:09;;;;;;;7.90;5.10;;;11.10;99.90;;;;;;5054783;28;20508;-55
2023/10/10 05:24:24;;;;;;;7.10;5.20;;;11.30;99.90;;;;;;5038510;28;20480;-54
2023/10/10 05:26:54;;;;;;;8.43;6.03;;;11.30;99.90;;;;;;5043548;28;20454;-54
2023/10/10 05:29:20;;;;;;;10.20;6.23;;;11.40;99.90;;;;;;5043331;28;21043;-55
2023/10/10 05:31:47;;;;;;;5.93;5.43;;;11.40;99.90;;;;;;5045642;28;20462;-55
2023/10/10 05:34:15;;;;;;;6.03;5.43;;;11.40;99.90;;;;;;5055461;28;20468;-55
2023/10/10 05:36:44;;;;;;;10.73;6.53;;;11.50;99.90;;;;;;5050631;28;21017;-55
2023/10/10 05:39:17;;;;;;;7.50;6.70;;;11.50;99.90;;;;;;5051210;28;20478;-55
2023/10/10 05:41:44;;;;;;;11.97;6.97;;;11.50;99.90;;;;;;5057356;28;20435;-54
2023/10/10 05:44:13;;;;;;;10.00;7.63;;;11.60;99.90;;;;;;5052410;28;20548;-54
2023/10/10 05:46:39;;;;;;;7.83;6.60;;;11.60;99.90;;;;;;5054252;28;20441;-55
2023/10/10 05:49:06;;;;;;;7.97;7.20;;;11.60;99.90;;;;;;5053893;28;20465;-57
2023/10/10 05:51:35;;;;;;;7.83;6.77;;;11.60;99.90;;;;;;5054058;28;20466;-59
2023/10/10 05:54:01;;;;;;;8.23;6.63;;;11.60;99.90;;;;;;5050598;28;20449;-55
2023/10/10 05:56:29;;;;;;;9.47;6.70;;;11.70;99.90;;;;;;5050858;28;20482;-57
2023/10/10 05:58:56;;;;;;;14.67;7.00;;;11.80;99.90;;;;;;5051765;28;20486;-54
2023/10/10 06:01:23;;;;;;;10.87;7.40;;;11.80;99.90;;;;;;5046828;28;20462;-55
2023/10/10 06:03:51;;;;;;;10.03;7.60;;;11.80;99.90;;;;;;5048072;28;20498;-55
2023/10/10 06:06:18;;;;;;;18.03;8.33;;;11.90;99.90;;;;;;5051737;28;20442;-55
2023/10/10 06:08:46;;;;;;;10.97;7.10;;;11.90;99.90;;;;;;5053515;28;20466;-54
2023/10/10 06:11:14;;;;;;;9.40;7.00;;;11.90;99.90;;;;;;5049127;28;20447;-54
2023/10/10 06:13:43;;;;;;;15.80;7.87;;;12.00;99.90;;;;;;5051970;28;20442;-57
2023/10/10 06:16:12;;;;;;;9.97;8.20;;;12.00;99.90;;;;;;5047370;28;20485;-56
2023/10/10 06:18:41;;;;;;;8.73;7.70;;;12.10;99.90;;;;;;5049826;28;21033;-56
2023/10/10 06:21:08;;;;;;;11.60;7.40;;;12.10;99.90;;;;;;5053398;28;20974;-54
2023/10/10 06:23:35;;;;;;;13.63;7.57;;;12.10;99.90;;;;;;5043435;28;20506;-56
2023/10/10 06:26:06;;;;;;;10.87;8.73;;;12.20;99.90;;;;;;5043802;28;20466;-54
2023/10/10 06:28:37;;;;;;;9.43;6.53;;;12.20;99.90;;;;;;5038580;28;20486;-55
2023/10/10 06:31:10;;;;;;;12.90;7.80;;;12.30;99.90;;;;;;5039980;28;20469;-55
2023/10/10 06:33:40;;;;;;;18.07;6.80;;;12.30;99.90;;;;;;5037950;28;20557;-56
2023/10/10 06:36:32;;;;;;;20.50;7.43;;;12.30;99.90;;;;;;5038053;28;20482;-55
2023/10/10 06:41:47;;;;;;;12.73;6.40;;;12.40;99.90;;;;;;5042685;28;20437;-54
2023/10/10 06:44:14;;;;;;;9.70;6.30;;;12.40;99.90;;;;;;5038524;28;20543;-54
2023/10/10 06:46:41;;;;;;;12.93;6.57;;;12.50;99.90;;;;;;5036092;28;20450;-54
2023/10/10 06:49:11;;;;;;;10.10;5.57;;;12.50;99.90;;;;;;5052724;28;20956;-54
2023/10/10 06:51:40;;;;;;;16.60;5.40;;;12.60;99.90;;;;;;5047295;28;20881;-54
2023/10/10 06:54:08;;;;;;;10.27;6.17;;;12.70;99.90;;;;;;5045054;28;20458;-54
2023/10/10 06:56:45;;;;;;;13.20;5.27;;;12.80;99.90;;;;;;5045950;28;20474;-54
2023/10/10 06:59:16;;;;;;;14.13;5.57;;;12.90;99.90;;;;;;5042954;28;20505;-54
2023/10/10 07:01:45;;;;;;;9.87;4.83;;;13.00;99.90;;;;;;5036418;28;20465;-54
2023/10/10 07:04:12;;;;;;;10.53;5.30;;;13.10;99.90;;;;;;5044340;28;20473;-54
2023/10/10 07:06:43;;;;;;;8.80;5.07;;;13.10;99.90;;;;;;5043622;28;20461;-54
2023/10/10 07:09:15;;;;;;;15.03;4.60;;;13.20;99.90;;;;;;5040920;28;20568;-54
2023/10/10 07:11:43;;;;;;;12.17;5.13;;;13.20;99.90;;;;;;5042263;28;20527;-54
2023/10/10 07:14:11;;;;;;;12.37;4.40;;;13.20;99.90;;;;;;5038085;28;20465;-55
2023/10/10 07:16:42;;;;;;;10.43;4.43;;;13.20;99.90;;;;;;5051675;28;20485;-54
2023/10/10 07:19:19;;;;;;;10.17;4.33;;;13.30;99.90;;;;;;5044069;28;21010;-54
2023/10/10 07:21:45;;;;;;;15.50;4.93;;;13.30;99.90;;;;;;5050082;28;20563;-54
2023/10/10 07:24:14;;;;;;;7.47;4.27;;;13.30;99.90;;;;;;5044447;28;20886;-54
2023/10/10 07:26:42;;;;;;;11.47;3.80;;;13.40;99.90;;;;;;5045529;28;20203;-54
2023/10/10 07:32:16;;;;;;;10.90;3.87;;;13.50;99.90;;;;;;5081645;28;21410;-55
2023/10/10 07:34:49;;;;;;;8.50;4.10;;;13.50;99.90;;;;;;5055359;28;20560;-54
2023/10/10 07:37:16;;;;;;;10.13;4.63;;;13.50;99.90;;;;;;5060788;28;20552;-55
2023/10/10 07:39:55;;;;;;;10.83;4.70;;;13.50;99.90;;;;;;5059678;28;20454;-56
2023/10/10 07:42:27;;;;;;;8.00;4.03;;;13.60;99.90;;;;;;5062857;28;20471;-55
2023/10/10 07:44:55;;;;;;;10.33;4.63;;;13.50;99.90;;;;;;5058732;28;20464;-55
2023/10/10 07:47:26;;;;;;;5.97;4.40;;;13.50;99.90;;;;;;5057251;28;20481;-54
2023/10/10 07:49:53;;;;;;;9.60;4.63;;;13.50;99.90;;;;;;5063791;28;20901;-54
2023/10/10 07:52:21;;;;;;;7.13;4.50;;;13.50;99.90;;;;;;5051337;28;20799;-55
2023/10/10 07:54:51;;;;;;;4.73;4.20;;;13.50;99.90;;;;;;5054680;28;20970;-56
2023/10/10 07:57:22;;;;;;;11.40;4.20;;;13.40;99.90;;;;;;5061518;28;20512;-55
2023/10/10 07:59:49;;;;;;;21.83;4.67;;;13.40;99.90;;;;;;5069020;28;20464;-55
2023/10/10 08:02:25;;;;;;;7.63;4.20;;;13.40;99.90;;;;;;5060032;28;20492;-55
2023/10/10 08:04:55;;;;;;;11.83;4.70;;;13.40;99.90;;;;;;5060314;28;20463;-55
2023/10/10 08:07:23;;;;;;;6.70;4.70;;;13.40;99.90;;;;;;5070176;28;20495;-55
2023/10/10 08:10:11;;;;;;;5.83;4.73;;;13.40;99.90;;;;;;5060728;28;20487;-54
2023/10/10 08:12:37;;;;;;;5.60;4.47;;;13.40;99.90;;;;;;5057230;28;20562;-54
2023/10/10 08:15:19;;;;;;;10.17;5.10;;;13.40;99.90;;;;;;5068401;28;20559;-55
2023/10/10 08:17:52;;;;;;;10.70;4.73;;;13.40;99.90;;;;;;5067480;28;20461;-54
2023/10/10 08:20:34;;;;;;;7.10;5.10;;;13.40;99.90;;;;;;5054169;28;20455;-54
2023/10/10 08:23:01;;;;;;;8.50;5.50;;;13.40;99.90;;;;;;5060894;28;20890;-54
2023/10/10 08:25:28;;;;;;;9.57;5.30;;;13.40;99.90;;;;;;5066153;28;20472;-54
2023/10/10 08:27:55;;;;;;;8.50;5.60;;;13.40;99.90;;;;;;5058277;28;20476;-54
2023/10/10 08:30:25;;;;;;;9.60;6.60;;;13.50;99.90;;;;;;5057582;28;20834;-54
2023/10/10 08:32:53;;;;;;;9.77;5.40;;;13.50;99.90;;;;;;5063330;28;20476;-54
2023/10/10 08:35:22;;;;;;;11.60;5.73;;;13.50;99.90;;;;;;5063603;28;20457;-54
2023/10/10 08:37:50;;;;;;;10.00;6.40;;;13.50;99.90;;;;;;5062347;28;20540;-54
2023/10/10 08:40:19;;;;;;;10.83;5.10;;;13.50;99.90;;;;;;5057616;28;20519;-54
2023/10/10 08:42:47;;;;;;;14.47;5.70;;;13.60;99.90;;;;;;5049983;28;20467;-54
2023/10/10 08:45:23;;;;;;;12.30;6.27;;;13.60;99.90;;;;;;5049122;28;20457;-53
2023/10/10 08:47:52;;;;;;;12.33;5.63;;;13.60;99.90;;;;;;5039533;28;20506;-54
2023/10/10 08:50:18;;;;;;;10.90;5.10;;;13.60;99.90;;;;;;5036019;28;21077;-55
2023/10/10 08:52:46;;;;;;;7.10;4.70;;;13.60;99.90;;;;;;5052166;28;20501;-55
2023/10/10 08:55:16;;;;;;;6.40;4.93;;;13.70;99.90;;;;;;5042917;28;21008;-55
2023/10/10 08:57:44;;;;;;;8.40;5.50;;;13.90;99.90;;;;;;5050286;28;20497;-55
2023/10/10 09:00:17;;;;;;;8.07;5.77;;;14.80;99.90;;;;;;5051755;28;20853;-54
2023/10/10 09:02:44;;;;;;;15.33;6.40;;;15.30;99.90;;;;;;5045343;28;20458;-53
2023/10/10 09:05:14;;;;;;;7.50;5.23;;;15.20;99.90;;;;;;5059900;28;20462;-55
2023/10/10 09:07:43;;;;;;;12.97;6.23;;;15.20;99.90;;;;;;5048708;28;20504;-55
2023/10/10 09:10:14;;;;;;;10.90;5.37;;;15.10;99.90;;;;;;5050639;28;20465;-55
2023/10/10 09:12:55;;;;;;;7.40;4.67;;;14.90;99.90;;;;;;5048051;28;20459;-54
2023/10/10 09:15:23;;;;;;;8.33;4.50;;;15.00;99.90;;;;;;5051481;28;20461;-54
2023/10/10 09:17:55;;;;;;;5.53;4.60;;;15.00;99.90;;;;;;5053424;28;20501;-54
2023/10/10 09:20:28;;;;;;;6.83;4.30;;;15.10;99.90;;;;;;5051189;28;20450;-54
2023/10/10 09:22:58;;;;;;;3.97;3.50;;;15.10;99.90;;;;;;5043379;28;20541;-55
2023/10/10 09:25:31;;;;;;;3.87;3.43;;;15.40;99.90;;;;;;5048119;28;20466;-55
2023/10/10 09:27:59;;;;;;;5.10;4.20;;;15.60;99.90;;;;;;5051566;28;20942;-54
2023/10/10 09:30:31;;;;;;;5.83;3.70;;;15.70;50.70;;;;;;5047957;28;20470;-55
2023/10/10 09:33:03;;;;;;;5.20;3.60;;;15.80;62.50;;;;;;5052648;28;20543;-55
2023/10/10 09:35:30;;;;;;;5.13;4.17;;;15.80;64.90;;;;;;5043325;28;20471;-55
2023/10/10 09:38:00;;;;;;;4.83;3.97;;;15.70;74.40;;;;;;5057397;28;20466;-54
2023/10/10 09:40:33;;;;;;;4.87;3.87;;;16.00;76.30;;;;;;5052421;28;20465;-55
2023/10/10 09:43:11;;;;;;;5.80;3.50;;;15.70;99.90;;;;;;5051057;28;20485;-54
2023/10/10 09:45:55;;;;;;;5.50;3.30;;;16.50;99.90;;;;;;5051458;28;20544;-55
2023/10/10 09:49:15;;;;;;;4.10;2.93;;;16.50;99.90;;;;;;5050997;28;20473;-54
2023/10/10 09:54:25;;;;;;;5.07;2.77;;;16.40;99.90;;;;;;5045477;28;20484;-55
2023/10/10 09:56:54;;;;;;;9.00;2.87;;;16.40;98.30;;;;;;5049515;28;20490;-54
2023/10/10 09:59:28;;;;;;;4.63;3.83;;;16.20;99.00;;;;;;5045698;28;20523;-54
2023/10/10 10:02:01;;;;;;;8.03;3.00;;;16.20;95.40;;;;;;5052482;28;20446;-55
2023/10/10 10:04:37;;;;;;;4.63;2.43;;;16.00;87.70;;;;;;5049248;28;20481;-54
2023/10/10 10:07:26;;;;;;;3.77;2.93;;;15.90;92.10;;;;;;5041363;28;20465;-54
2023/10/10 10:10:20;;;;;;;2.80;2.50;;;15.80;83.40;;;;;;5044927;28;20458;-54
2023/10/10 10:13:21;;;;;;;2.17;1.97;;;15.70;77.50;;;;;;5045369;28;20450;-53
2023/10/10 10:16:18;;;;;;;2.57;1.87;;;15.70;76.40;;;;;;5004105;28;20451;-54
2023/10/10 10:18:52;;;;;;;6.50;2.00;;;15.60;87.20;;;;;;5043530;28;20487;-54
2023/10/10 10:21:27;;;;;;;1.77;1.40;;;15.70;84.00;;;;;;5047234;28;20458;-53
2023/10/10 10:24:15;;;;;;;1.77;1.63;;;15.80;93.30;;;;;;5041713;28;20559;-54
2023/10/10 10:26:43;;;;;;;4.23;2.00;;;15.80;99.60;;;;;;5041083;28;22128;-55
2023/10/10 10:29:16;;;;;;;1.67;1.57;;;15.80;99.90;;;;;;5047257;28;20484;-54
2023/10/10 10:31:57;;;;;;;2.73;1.80;;;15.90;99.90;;;;;;5051216;28;20485;-54
2023/10/10 10:34:32;;;;;;;3.80;2.10;;;15.80;99.90;;;;;;5046523;28;20464;-54
2023/10/10 10:37:06;;;;;;;1.90;1.70;;;15.80;99.90;;;;;;5049295;28;20500;-54
2023/10/10 10:39:35;;;;;;;4.93;2.13;;;15.90;98.50;;;;;;5044521;28;20458;-54
2023/10/10 10:42:02;;;;;;;3.10;2.10;;;15.90;97.70;;;;;;5045539;28;20459;-54
2023/10/10 10:44:46;;;;;;;5.30;1.83;;;15.90;99.90;;;;;;5043979;28;20458;-54
2023/10/10 10:47:45;;;;;;;2.47;1.90;;;15.80;99.90;;;;;;5042312;28;21004;-54
2023/10/10 10:50:28;;;;;;;4.60;1.90;;;15.80;99.90;;;;;;5038217;28;20465;-54
2023/10/10 10:52:59;;;;;;;2.90;1.93;;;15.80;99.90;;;;;;5040115;28;20484;-54
2023/10/10 10:55:28;;;;;;;2.57;2.03;;;15.80;99.50;;;;;;5034947;28;20959;-54
2023/10/10 10:58:05;;;;;;;7.40;1.80;;;15.70;99.90;;;;;;5036462;28;20491;-54
2023/10/10 11:03:38;;;;;;;2.83;1.80;;;15.70;86.80;;;;;;5150210;27;20563;-54
2023/10/10 11:06:07;;;;;;;11.80;2.50;;;15.70;87.20;;;;;;5149206;27;20514;-54
2023/10/10 11:11:25;;;;;;;2.13;1.77;;;15.70;90.60;;;;;;5136623;27;20461;-54
2023/10/10 11:13:54;;;;;;;4.93;1.83;;;15.70;87.70;;;;;;5143211;27;20938;-54
2023/10/10 11:16:23;;;;;;;4.77;2.57;;;15.80;84.30;;;;;;5143081;27;20435;-54
2023/10/10 11:18:57;;;;;;;4.63;2.80;;;15.80;82.30;;;;;;5134422;27;20469;-54
2023/10/10 11:21:28;;;;;;;2.57;2.17;;;15.80;80.90;;;;;;5146062;27;20449;-55
2023/10/10 11:23:58;;;;;;;2.50;2.10;;;15.80;78.40;;;;;;5143213;27;20454;-54
2023/10/10 11:26:33;;;;;;;4.53;1.93;;;15.70;76.90;;;;;;5145494;27;20476;-55
2023/10/10 11:29:00;;;;;;;6.63;2.47;;;15.70;75.80;;;;;;5143692;27;20820;-54
2023/10/10 11:31:29;;;;;;;13.30;2.80;;;15.70;74.60;;;;;;5149511;27;20490;-54
2023/10/10 11:34:10;;;;;;;7.90;3.20;;;15.60;73.50;;;;;;5148751;27;20830;-54
2023/10/10 11:36:39;;;;;;;3.20;2.10;;;15.50;67.30;;;;;;5136230;27;20461;-54
2023/10/10 11:39:17;;;;;;;3.47;2.60;;;15.50;62.20;;;;;;5135426;27;20572;-54
2023/10/10 11:41:46;;;;;;;10.27;2.60;;;15.50;52.70;;;;;;5138395;27;20570;-53
2023/10/10 11:44:18;;;;;;;6.57;2.27;;;15.50;48.90;;;;;;5139815;27;20465;-54
2023/10/10 11:46:46;;;;;;;2.43;2.20;;;15.60;47.70;;;;;;5146212;27;20513;-54
2023/10/10 11:49:16;;;;;;;6.57;2.47;;;15.70;56.80;;;;;;5144082;27;20880;-55
2023/10/10 11:51:42;;;;;;;13.07;2.70;;;15.80;54.60;;;;;;5136566;27;20878;-55
2023/10/10 11:54:09;;;;;;;4.53;2.60;;;15.90;53.50;;;;;;5132981;27;20602;-55
2023/10/10 11:56:36;;;;;;;4.30;2.67;;;15.90;58.60;;;;;;5135437;27;20461;-54
2023/10/10 11:59:09;;;;;;;4.17;2.60;;;16.00;58.70;;;;;;5143689;27;20978;-55
2023/10/10 12:01:51;;;;;;;4.50;2.70;;;16.00;61.70;;;;;;5141542;27;20466;-55
2023/10/10 12:04:30;;;;;;;4.27;3.00;;;16.00;70.20;;;;;;5142447;27;20457;-55
2023/10/10 12:06:59;;;;;;;6.47;3.00;;;16.00;67.10;;;;;;5136743;27;20462;-55
2023/10/10 12:09:26;;;;;;;7.67;2.63;;;16.00;72.60;;;;;;5137499;27;20510;-54
2023/10/10 12:11:58;;;;;;;3.90;2.40;;;16.00;76.70;;;;;;5134612;27;20869;-55
2023/10/10 12:14:29;;;;;;;6.30;2.80;;;16.00;75.60;;;;;;5118023;27;20459;-54
2023/10/10 12:16:57;;;;;;;8.60;2.80;;;16.00;78.20;;;;;;5122526;27;20590;-54
2023/10/10 12:19:27;;;;;;;5.60;2.00;;;16.00;79.60;;;;;;5122859;27;20453;-55
2023/10/10 12:21:55;;;;;;;8.70;3.33;;;16.00;81.30;;;;;;5124841;27;20504;-55
2023/10/10 12:24:22;;;;;;;13.83;2.47;;;15.90;84.50;;;;;;5123901;27;20511;-54
2023/10/10 12:26:54;;;;;;;6.57;2.50;;;15.90;77.80;;;;;;5122413;27;20508;-54
2023/10/10 12:29:22;;;;;;;8.30;2.13;;;15.80;80.70;;;;;;5123404;27;20450;-54
2023/10/10 12:31:55;;;;;;;16.57;2.73;;;15.80;75.60;;;;;;5125435;27;20447;-54
2023/10/10 12:34:24;;;;;;;11.50;3.50;;;15.70;72.20;;;;;;5124426;27;20837;-54
2023/10/10 12:36:59;;;;;;;8.17;2.67;;;15.70;67.50;;;;;;5118372;27;20878;-54
2023/10/10 12:39:27;;;;;;;9.53;3.53;;;15.70;64.10;;;;;;5122545;27;20553;-55
2023/10/10 12:41:54;;;;;;;8.50;2.63;;;15.70;59.00;;;;;;5115695;27;20808;-55
2023/10/10 12:44:23;;;;;;;2.40;2.17;;;15.80;65.20;;;;;;5116521;27;20964;-54
2023/10/10 12:46:54;;;;;;;4.43;2.67;;;15.80;72.90;;;;;;5122852;27;20462;-55
2023/10/10 12:49:28;;;;;;;3.50;2.10;;;15.80;74.30;;;;;;5125348;27;20538;-54
2023/10/10 12:51:57;;;;;;;5.90;2.50;;;15.80;77.30;;;;;;5122757;27;20951;-55
2023/10/10 12:54:27;;;;;;;12.67;2.97;;;15.80;77.40;;;;;;5115578;27;20462;-55
2023/10/10 12:57:01;;;;;;;5.60;2.20;;;15.90;74.10;;;;;;5121018;27;20872;-54
2023/10/10 12:59:28;;;;;;;20.57;4.47;;;15.90;73.40;;;;;;5117299;27;20466;-54
2023/10/10 13:02:00;;;;;;;6.07;2.37;;;15.90;79.60;;;;;;5116772;27;20865;-55
2023/10/10 13:04:29;;;;;;;1.90;1.67;;;16.00;85.30;;;;;;5120919;27;20811;-54
2023/10/10 13:07:02;;;;;;;4.43;2.27;;;16.00;84.30;;;;;;5124887;27;20470;-54
2023/10/10 13:09:30;;;;;;;6.73;2.50;;;15.90;83.60;;;;;;5119127;27;20918;-54
2023/10/10 13:11:57;;;;;;;12.03;2.53;;;16.00;84.00;;;;;;5119151;27;20543;-54
2023/10/10 13:14:25;;;;;;;3.70;2.20;;;15.90;79.80;;;;;;5118112;27;20543;-54
2023/10/10 13:17:13;;;;;;;7.03;2.13;;;16.00;76.50;;;;;;5115543;27;20538;-54
2023/10/10 13:19:41;;;;;;;5.53;2.30;;;16.00;74.90;;;;;;5120433;27;20455;-54
2023/10/10 13:22:20;;;;;;;4.70;2.37;;;16.00;68.60;;;;;;5123116;27;20530;-54
2023/10/10 13:24:47;;;;;;;4.60;2.53;;;16.00;72.70;;;;;;5119717;27;20548;-54
2023/10/10 13:27:13;;;;;;;3.00;2.23;;;16.00;70.70;;;;;;5113807;27;20509;-54
2023/10/10 13:29:40;;;;;;;8.83;2.40;;;16.00;69.40;;;;;;5116327;27;20456;-55
2023/10/10 13:32:07;;;;;;;8.40;2.03;;;16.10;62.10;;;;;;5121579;27;20435;-55
2023/10/10 13:34:37;;;;;;;3.97;2.30;;;16.20;65.10;;;;;;5116509;27;20467;-54
2023/10/10 13:37:07;;;;;;;11.73;3.00;;;16.30;71.50;;;;;;5123875;27;20454;-54
2023/10/10 13:39:43;;;;;;;6.23;3.27;;;16.40;74.50;;;;;;5117881;27;20443;-54
2023/10/10 13:42:10;;;;;;;5.50;2.53;;;16.40;90.10;;;;;;5122259;27;20461;-54
2023/10/10 13:44:37;;;;;;;7.93;3.20;;;16.50;84.30;;;;;;5112693;27;20454;-55
2023/10/10 13:47:04;;;;;;;8.73;3.10;;;16.50;86.20;;;;;;5128376;27;20447;-55
2023/10/10 13:49:31;;;;;;;4.80;2.77;;;16.50;80.10;;;;;;5114898;27;20537;-55
2023/10/10 13:51:59;;;;;;;2.50;2.30;;;16.40;92.70;;;;;;5118540;27;20516;-55
2023/10/10 13:54:26;;;;;;;4.67;2.57;;;16.40;93.10;;;;;;5120464;27;20487;-55
2023/10/10 13:56:54;;;;;;;4.00;2.30;;;16.40;90.50;;;;;;5117754;27;20551;-54
2023/10/10 13:59:21;;;;;;;3.10;2.10;;;16.30;86.70;;;;;;5123356;27;20515;-55
2023/10/10 14:01:48;;;;;;;3.87;2.10;;;16.30;84.30;;;;;;5115910;27;20478;-55
2023/10/10 14:04:15;;;;;;;3.30;2.00;;;16.30;83.10;;;;;;5120556;27;20613;-55
2023/10/10 14:06:47;;;;;;;6.13;2.40;;;16.30;86.30;;;;;;5116783;27;20875;-54
2023/10/10 14:09:21;;;;;;;9.37;2.43;;;16.30;85.50;;;;;;5128116;27;20478;-53
2023/10/10 14:11:49;;;;;;;2.50;2.03;;;16.30;83.40;;;;;;5119944;27;20455;-54
2023/10/10 14:14:17;;;;;;;3.80;2.53;;;16.20;78.50;;;;;;5111137;27;20455;-55
2023/10/10 14:16:44;;;;;;;11.73;3.27;;;16.30;74.20;;;;;;5114796;27;20455;-54
2023/10/10 14:19:10;;;;;;;10.83;2.50;;;16.20;77.40;;;;;;5116967;27;20478;-59
2023/10/10 14:21:38;;;;;;;4.97;3.03;;;16.20;74.50;;;;;;5123921;27;20439;-59
2023/10/10 14:24:08;;;;;;;2.90;2.63;;;16.10;72.90;;;;;;5116273;27;20479;-60
2023/10/10 14:26:35;;;;;;;6.10;2.23;;;16.10;68.70;;;;;;5115507;27;20458;-60
2023/10/10 14:29:05;;;;;;;11.70;2.57;;;16.10;65.80;;;;;;5122092;27;20482;-56
2023/10/10 14:31:35;;;;;;;4.90;2.50;;;16.00;64.40;;;;;;5118480;27;20451;-55
2023/10/10 14:34:05;;;;;;;3.33;2.50;;;16.10;62.60;;;;;;5113006;27;20443;-63
2023/10/10 14:36:32;;;;;;;2.77;2.43;;;16.00;59.30;;;;;;5113097;27;20466;-64
2023/10/10 14:38:59;;;;;;;3.97;2.53;;;16.00;55.30;;;;;;5114330;27;20508;-64
2023/10/10 14:41:30;;;;;;;4.30;2.87;;;16.00;54.10;;;;;;5116102;27;20952;-64
2023/10/10 14:44:00;;;;;;;4.37;2.90;;;16.00;52.90;;;;;;5117690;27;20515;-56
2023/10/10 14:46:31;;;;;;;9.23;2.67;;;16.00;52.30;;;;;;5113512;27;20548;-61
2023/10/10 14:49:05;;;;;;;3.03;2.77;;;16.00;50.50;;;;;;5110597;27;20567;-61
2023/10/10 14:51:34;;;;;;;8.80;4.30;;;16.00;52.10;;;;;;5123476;27;20459;-61
2023/10/10 14:54:06;;;;;;;7.20;3.03;;;16.00;51.50;;;;;;5125193;27;20454;-60
2023/10/10 14:56:35;;;;;;;3.33;2.90;;;16.00;50.50;;;;;;5128681;27;20462;-60
2023/10/10 14:59:03;;;;;;;7.20;3.30;;;16.00;51.40;;;;;;5124809;27;20474;-59
2023/10/10 15:01:34;;;;;;;5.93;3.17;;;16.00;51.20;;;;;;5124073;27;20482;-59